Time;durP1;ratioP1;P1;durP2;ratioP2;P2;SDS_P1;SDS_P2;PMS_P1;PMS_P2;Temp;Humidity;BMP_temperature;BMP_pressure;BME280_temperature;BME280_humidity;BME280_pressure;Samples;Min_cycle;Max_cycle;Signal;HPM_P1;HPM_P2
2023/01/09 00:00:36;;;;;;;4.30;2.60;;;;;;;5.85;92.79;98957.02;109100;1254;59740;-79
2023/01/09 00:03:03;;;;;;;4.50;2.30;;;;;;;5.82;92.97;98954.27;109258;1251;59626;-79
2023/01/09 00:05:30;;;;;;;5.10;2.50;;;;;;;5.81;93.18;98948.25;109241;1253;72644;-79
2023/01/09 00:07:57;;;;;;;3.60;2.00;;;;;;;5.82;93.34;98943.80;109163;1254;71785;-79
2023/01/09 00:10:24;;;;;;;3.20;2.10;;;;;;;5.84;93.70;98934.75;109292;1254;72632;-79
2023/01/09 00:12:52;;;;;;;3.70;1.90;;;;;;;5.87;93.95;98937.86;109298;1254;59466;-79
2023/01/09 00:15:18;;;;;;;3.60;2.00;;;;;;;5.90;94.26;98935.72;109158;1252;58820;-79
2023/01/09 00:17:46;;;;;;;3.30;1.90;;;;;;;5.96;94.49;98924.53;109124;1253;73760;-79
2023/01/09 00:20:13;;;;;;;2.80;1.90;;;;;;;6.02;94.21;98914.50;109147;1254;68781;-79
2023/01/09 00:22:40;;;;;;;3.60;2.00;;;;;;;6.07;94.18;98907.23;109280;1254;71932;-79
2023/01/09 00:25:08;;;;;;;3.40;1.80;;;;;;;6.11;94.20;98897.20;109237;1256;60685;-79
2023/01/09 00:27:35;;;;;;;3.60;1.90;;;;;;;6.15;93.63;98896.55;109282;1254;58769;-79
2023/01/09 00:30:02;;;;;;;3.10;2.00;;;;;;;6.16;93.73;98900.11;109140;1254;72366;-79
2023/01/09 00:32:29;;;;;;;3.10;1.60;;;;;;;6.18;93.68;98897.10;108998;1253;69633;-79
2023/01/09 00:34:56;;;;;;;3.90;1.80;;;;;;;6.19;93.83;98892.38;109255;1254;72345;-79
2023/01/09 00:37:23;;;;;;;3.60;1.80;;;;;;;6.22;93.58;98894.09;109082;1253;59632;-79
2023/01/09 00:39:50;;;;;;;3.90;1.80;;;;;;;6.24;93.70;98891.39;109082;1254;60011;-79
2023/01/09 00:42:20;;;;;;;3.10;1.90;;;;;;;6.27;93.71;98892.92;109268;1254;73552;-79
2023/01/09 00:44:52;;;;;;;4.10;2.00;;;;;;;6.31;93.60;98886.65;109248;1254;71241;-79
2023/01/09 00:47:28;;;;;;;3.60;1.90;;;;;;;6.31;93.36;98882.90;109094;1252;72799;-79
2023/01/09 00:50:04;;;;;;;3.50;2.10;;;;;;;6.32;93.15;98884.61;109064;1252;61782;-79
2023/01/09 00:52:33;;;;;;;4.20;1.90;;;;;;;6.33;92.78;98883.23;109252;1254;60119;-79
2023/01/09 00:55:00;;;;;;;3.50;2.10;;;;;;;6.31;92.71;98880.70;109178;1254;72314;-79
2023/01/09 00:57:27;;;;;;;3.50;1.90;;;;;;;6.28;92.36;98883.85;109273;1254;70998;-79
2023/01/09 00:59:54;;;;;;;3.50;1.90;;;;;;;6.26;92.32;98880.58;108997;1257;71149;-79
2023/01/09 01:02:21;;;;;;;4.60;2.50;;;;;;;6.25;92.67;98875.94;109251;1251;60912;-79
2023/01/09 01:07:41;;;;;;;7.70;2.90;;;;;;;6.20;92.29;98876.45;109283;1253;74072;-79
2023/01/09 01:10:19;;;;;;;5.20;3.00;;;;;;;6.18;92.50;98876.20;109117;1254;69970;-79
2023/01/09 01:12:47;;;;;;;4.50;3.00;;;;;;;6.19;92.86;98878.55;109090;1253;71254;-79
2023/01/09 01:15:15;;;;;;;4.20;3.30;;;;;;;6.19;92.57;98879.33;108959;1254;59796;-79
2023/01/09 01:17:42;;;;;;;3.90;2.70;;;;;;;6.19;92.98;98874.75;109033;1252;59225;-79
2023/01/09 01:20:12;;;;;;;3.60;2.20;;;;;;;6.22;93.07;98873.39;109039;1253;73572;-79
2023/01/09 01:22:41;;;;;;;4.30;1.50;;;;;;;6.25;93.59;98868.64;109202;1253;71153;-80
2023/01/09 01:25:09;;;;;;;2.00;1.20;;;;;;;6.28;94.44;98868.58;108894;1257;72381;-79
2023/01/09 01:27:36;;;;;;;2.70;1.10;;;;;;;6.32;94.63;98860.55;109102;1251;59634;-79
2023/01/09 01:30:05;;;;;;;2.80;1.20;;;;;;;6.37;94.86;98863.73;109120;1253;60935;-79
2023/01/09 01:32:32;;;;;;;2.40;1.00;;;;;;;6.43;95.06;98863.86;109122;1252;74014;-79
2023/01/09 01:34:59;;;;;;;2.10;1.10;;;;;;;6.51;95.38;98863.42;109091;1253;70172;-79
2023/01/09 01:37:26;;;;;;;2.20;0.90;;;;;;;6.59;95.12;98866.09;108950;1254;71685;-79
2023/01/09 01:39:53;;;;;;;1.60;0.90;;;;;;;6.68;94.95;98863.75;109041;1253;59918;-79
2023/01/09 01:42:20;;;;;;;2.10;1.00;;;;;;;6.75;94.63;98860.36;109252;1253;59104;-79
2023/01/09 01:45:11;;;;;;;1.70;0.90;;;;;;;6.82;94.47;98860.05;109091;1253;73615;-79
2023/01/09 01:47:47;;;;;;;2.00;1.00;;;;;;;6.88;94.56;98857.12;108986;1253;70268;-79
2023/01/09 01:50:38;;;;;;;2.30;1.00;;;;;;;6.92;94.60;98858.48;109223;1253;72402;-79
2023/01/09 01:53:15;;;;;;;1.80;0.90;;;;;;;6.94;94.84;98856.20;108978;1253;60372;-79
2023/01/09 01:56:10;;;;;;;1.80;1.10;;;;;;;6.96;94.95;98853.02;109209;1252;58774;-79
2023/01/09 01:58:49;;;;;;;2.30;1.00;;;;;;;6.97;95.31;98847.27;109225;1253;73190;-79
2023/01/09 02:01:15;;;;;;;1.70;1.10;;;;;;;6.98;95.12;98850.80;109058;1253;69080;-79
2023/01/09 02:03:43;;;;;;;2.10;1.00;;;;;;;6.98;95.54;98845.52;108939;1253;71837;-79
2023/01/09 02:06:12;;;;;;;2.00;0.80;;;;;;;6.99;95.64;98843.49;109056;1253;59730;-79
2023/01/09 02:08:39;;;;;;;1.90;0.90;;;;;;;7.00;95.54;98845.66;108970;1253;58833;-79
2023/01/09 02:11:06;;;;;;;3.00;1.00;;;;;;;7.01;95.76;98840.06;109083;1253;72750;-79
2023/01/09 02:13:37;;;;;;;2.70;1.10;;;;;;;7.01;95.92;98835.96;109219;1253;70630;-78
2023/01/09 02:16:27;;;;;;;1.90;1.00;;;;;;;7.02;96.48;98834.70;108900;1251;72459;-78
2023/01/09 02:19:25;;;;;;;2.20;1.00;;;;;;;7.02;96.64;98834.70;109186;1251;59626;-78
2023/01/09 02:22:10;;;;;;;1.60;0.90;;;;;;;7.01;97.28;98832.27;109211;1252;60081;-78
2023/01/09 02:25:08;;;;;;;2.10;1.00;;;;;;;7.02;97.28;98829.60;109213;1252;72965;-78
2023/01/09 02:27:44;;;;;;;1.90;0.80;;;;;;;7.03;97.70;98830.05;109254;1257;70822;-78
2023/01/09 02:30:25;;;;;;;2.10;0.90;;;;;;;7.05;97.40;98827.58;109210;1252;71556;-78
2023/01/09 02:33:15;;;;;;;1.80;0.90;;;;;;;7.07;97.90;98824.66;109202;1252;59942;-78
2023/01/09 02:36:11;;;;;;;1.40;0.90;;;;;;;7.08;97.82;98821.42;109221;1252;60035;-78
2023/01/09 02:38:37;;;;;;;2.00;1.00;;;;;;;7.09;98.23;98815.06;109256;1251;73706;-77
2023/01/09 02:41:18;;;;;;;2.30;0.90;;;;;;;7.09;98.76;98815.05;109209;1253;70309;-78
2023/01/09 02:43:45;;;;;;;2.30;1.10;;;;;;;7.11;98.56;98814.33;109191;1253;71805;-78
2023/01/09 02:46:19;;;;;;;2.00;1.10;;;;;;;7.11;98.84;98811.78;108915;1253;61221;-78
2023/01/09 02:48:49;;;;;;;1.60;1.00;;;;;;;7.13;98.77;98811.27;109063;1253;59397;-78
2023/01/09 02:51:35;;;;;;;2.80;1.10;;;;;;;7.13;99.47;98811.79;109226;1253;74098;-78
2023/01/09 02:54:20;;;;;;;3.40;1.10;;;;;;;7.13;99.43;98806.52;109227;1252;69696;-78
2023/01/09 02:57:04;;;;;;;3.30;1.20;;;;;;;7.14;99.81;98805.34;109219;1252;71498;-78
2023/01/09 02:59:40;;;;;;;3.90;1.00;;;;;;;7.15;99.77;98807.61;109273;1253;59763;-78
2023/01/09 03:02:28;;;;;;;2.70;1.00;;;;;;;7.17;99.91;98804.05;109211;1253;61051;-78
2023/01/09 03:05:10;;;;;;;2.00;1.10;;;;;;;7.20;99.82;98803.20;109229;1252;71661;-78
2023/01/09 03:07:40;;;;;;;2.20;1.20;;;;;;;7.21;99.75;98797.48;109244;1254;69693;-78
2023/01/09 03:10:22;;;;;;;1.90;1.20;;;;;;;7.23;99.79;98799.44;109275;1251;73158;-78
2023/01/09 03:12:52;;;;;;;2.30;1.30;;;;;;;7.22;99.91;98796.84;109063;1254;60948;-78
2023/01/09 03:15:27;;;;;;;2.20;1.20;;;;;;;7.21;99.94;98793.51;108937;1253;59373;-78
2023/01/09 03:17:55;;;;;;;2.80;1.00;;;;;;;7.23;99.95;98790.64;109229;1253;72357;-77
2023/01/09 03:20:26;;;;;;;2.30;1.10;;;;;;;7.24;99.99;98792.09;109103;1253;70794;-77
2023/01/09 03:22:53;;;;;;;2.40;1.10;;;;;;;7.24;99.98;98785.75;109246;1253;72785;-77
2023/01/09 03:25:21;;;;;;;3.10;1.30;;;;;;;7.25;99.95;98787.95;109224;1253;59999;-77
2023/01/09 03:27:54;;;;;;;2.60;1.20;;;;;;;7.23;99.93;98782.89;109214;1252;60058;-77
2023/01/09 03:30:21;;;;;;;2.90;1.40;;;;;;;7.22;100.00;98785.77;109170;1253;73551;-77
2023/01/09 03:32:48;;;;;;;2.60;1.30;;;;;;;7.22;100.00;98779.84;109071;1256;69378;-76
2023/01/09 03:35:15;;;;;;;2.50;1.30;;;;;;;7.21;100.00;98778.09;109202;1254;71462;-77
2023/01/09 03:37:42;;;;;;;3.50;1.20;;;;;;;7.20;100.00;98777.24;109062;1253;60010;-77
2023/01/09 03:40:09;;;;;;;3.30;1.40;;;;;;;7.20;100.00;98772.00;109076;1253;58302;-77
2023/01/09 03:42:36;;;;;;;2.00;1.20;;;;;;;7.21;100.00;98768.35;109275;1253;72296;-76
2023/01/09 03:45:05;;;;;;;2.30;1.30;;;;;;;7.21;100.00;98769.79;109229;1252;70698;-77
2023/01/09 03:48:22;;;;;;;2.60;1.40;;;;;;;7.21;100.00;98773.58;109055;1253;72383;-77
2023/01/09 03:50:51;;;;;;;3.60;1.40;;;;;;;7.22;100.00;98767.55;109185;1252;59646;-77
2023/01/09 03:53:19;;;;;;;3.00;1.40;;;;;;;7.23;100.00;98767.23;109082;1252;58933;-77
2023/01/09 03:55:48;;;;;;;3.20;1.50;;;;;;;7.25;100.00;98765.23;109088;1253;74515;-77
2023/01/09 03:58:16;;;;;;;3.20;1.50;;;;;;;7.26;100.00;98762.44;109094;1253;69825;-77
2023/01/09 04:00:47;;;;;;;3.10;1.50;;;;;;;7.27;100.00;98759.45;109199;1253;72478;-78
2023/01/09 04:03:17;;;;;;;3.10;1.70;;;;;;;7.29;100.00;98756.80;108944;1253;61951;-77
2023/01/09 04:05:45;;;;;;;2.60;1.60;;;;;;;7.29;100.00;98754.79;109133;1253;60072;-78
2023/01/09 04:08:12;;;;;;;4.20;1.70;;;;;;;7.31;100.00;98755.78;108997;1252;73639;-78
2023/01/09 04:10:42;;;;;;;3.20;1.40;;;;;;;7.33;100.00;98756.20;109183;1253;69899;-78
2023/01/09 04:13:09;;;;;;;2.50;1.60;;;;;;;7.34;100.00;98758.67;109208;1253;70486;-78
2023/01/09 04:15:36;;;;;;;2.80;1.80;;;;;;;7.37;100.00;98760.34;109039;1255;60754;-78
2023/01/09 04:18:04;;;;;;;3.10;1.60;;;;;;;7.41;100.00;98765.63;109067;1253;58818;-78
2023/01/09 04:20:31;;;;;;;2.90;1.60;;;;;;;7.43;100.00;98762.22;109223;1256;74546;-78
2023/01/09 04:22:58;;;;;;;2.50;1.70;;;;;;;7.43;100.00;98755.56;109096;1253;70193;-78
2023/01/09 04:25:26;;;;;;;2.90;1.70;;;;;;;7.43;100.00;98752.63;109067;1253;71156;-78
2023/01/09 04:27:53;;;;;;;3.10;1.70;;;;;;;7.45;100.00;98748.48;109196;1253;59623;-78
2023/01/09 04:30:20;;;;;;;2.50;1.90;;;;;;;7.46;100.00;98752.92;109205;1253;59349;-78
2023/01/09 04:32:46;;;;;;;4.10;2.10;;;;;;;7.47;100.00;98753.40;109216;1253;73245;-78
2023/01/09 04:35:14;;;;;;;3.20;2.10;;;;;;;7.46;100.00;98756.00;109256;1252;69788;-78
2023/01/09 04:37:41;;;;;;;2.70;1.90;;;;;;;7.45;100.00;98760.99;109117;1253;71878;-78
2023/01/09 04:40:09;;;;;;;4.30;2.00;;;;;;;7.44;100.00;98764.31;109210;1253;59942;-78
2023/01/09 04:42:37;;;;;;;3.20;1.70;;;;;;;7.42;100.00;98758.20;109083;1253;58756;-78
2023/01/09 04:45:05;;;;;;;3.90;2.00;;;;;;;7.40;100.00;98761.20;109105;1253;71820;-78
2023/01/09 04:47:32;;;;;;;2.90;1.60;;;;;;;7.38;100.00;98757.88;109075;1253;69935;-78
2023/01/09 04:49:59;;;;;;;2.70;1.60;;;;;;;7.35;100.00;98757.75;108953;1253;72494;-78
2023/01/09 04:52:27;;;;;;;2.20;1.40;;;;;;;7.33;100.00;98763.83;109096;1253;60204;-78
2023/01/09 04:54:53;;;;;;;2.00;1.30;;;;;;;7.30;100.00;98769.02;109234;1252;60172;-78
2023/01/09 04:57:21;;;;;;;2.00;1.00;;;;;;;7.30;100.00;98767.14;109207;1253;72647;-78
2023/01/09 04:59:47;;;;;;;2.40;1.00;;;;;;;7.28;100.00;98770.02;108930;1253;70075;-78
2023/01/09 05:02:15;;;;;;;1.90;1.00;;;;;;;7.25;100.00;98771.13;109209;1252;70134;-78
2023/01/09 05:04:41;;;;;;;2.10;0.90;;;;;;;7.24;100.00;98777.98;109064;1253;62000;-78
2023/01/09 05:07:08;;;;;;;2.20;0.80;;;;;;;7.22;99.86;98783.41;109236;1252;59133;-78
2023/01/09 05:09:36;;;;;;;1.50;0.60;;;;;;;7.20;99.79;98784.90;109139;1253;72378;-78
2023/01/09 05:12:03;;;;;;;1.60;0.70;;;;;;;7.18;99.78;98788.58;109249;1252;70328;-78
2023/01/09 05:14:30;;;;;;;2.10;0.60;;;;;;;7.15;99.64;98791.98;109191;1253;72396;-78
2023/01/09 05:16:57;;;;;;;1.30;0.50;;;;;;;7.12;99.37;98789.55;109078;1253;59651;-78
2023/01/09 05:19:24;;;;;;;1.40;0.50;;;;;;;7.10;99.21;98792.44;109178;1253;60111;-78
2023/01/09 05:21:51;;;;;;;0.50;0.30;;;;;;;7.06;99.15;98791.92;109231;1252;72361;-78
2023/01/09 05:24:18;;;;;;;0.90;0.40;;;;;;;7.02;98.78;98789.98;109072;1253;69768;-78
2023/01/09 05:26:45;;;;;;;1.40;0.30;;;;;;;7.02;98.89;98792.77;109098;1253;71913;-78
2023/01/09 05:29:12;;;;;;;0.50;0.30;;;;;;;7.00;99.03;98798.68;108854;1253;59667;-78
2023/01/09 05:31:39;;;;;;;0.80;0.20;;;;;;;6.98;98.74;98803.86;109273;1252;59158;-78
2023/01/09 05:34:06;;;;;;;0.70;0.30;;;;;;;6.98;99.37;98806.96;109105;1253;75291;-78
2023/01/09 05:36:33;;;;;;;0.90;0.40;;;;;;;6.98;98.90;98806.92;108973;1253;69792;-78
2023/01/09 05:39:01;;;;;;;0.80;0.30;;;;;;;6.97;99.25;98810.40;109076;1253;72384;-78
2023/01/09 05:41:28;;;;;;;1.90;0.30;;;;;;;6.96;99.56;98812.34;109225;1252;60895;-78
2023/01/09 05:43:55;;;;;;;1.00;0.30;;;;;;;6.93;99.53;98815.30;109194;1253;58823;-78
2023/01/09 05:46:22;;;;;;;1.10;0.40;;;;;;;6.96;99.48;98820.86;109109;1252;72721;-78
2023/01/09 05:48:49;;;;;;;0.50;0.30;;;;;;;6.96;99.55;98826.98;109209;1252;69826;-78
2023/01/09 05:51:16;;;;;;;1.60;0.50;;;;;;;6.96;99.34;98834.52;109105;1253;72464;-78
2023/01/09 05:53:43;;;;;;;0.90;0.40;;;;;;;6.96;99.30;98833.96;108981;1252;59716;-79
2023/01/09 05:56:10;;;;;;;1.00;0.50;;;;;;;6.97;99.51;98840.04;109116;1253;58822;-78
2023/01/09 05:58:38;;;;;;;1.50;0.60;;;;;;;6.96;99.53;98848.08;109091;1255;73864;-78
2023/01/09 06:01:05;;;;;;;1.90;0.80;;;;;;;6.93;98.95;98849.77;109270;1252;70865;-78
2023/01/09 06:03:32;;;;;;;2.20;0.90;;;;;;;6.94;99.03;98850.05;109268;1252;71299;-78
2023/01/09 06:05:59;;;;;;;1.90;0.80;;;;;;;6.95;98.97;98849.90;109082;1253;59598;-78
2023/01/09 06:08:26;;;;;;;1.40;0.80;;;;;;;6.96;98.99;98852.08;109131;1253;59410;-78
2023/01/09 06:10:53;;;;;;;1.70;0.90;;;;;;;6.97;98.90;98849.73;108985;1252;72970;-78
2023/01/09 06:13:20;;;;;;;1.80;1.10;;;;;;;6.97;98.91;98843.01;109245;1252;70928;-78
2023/01/09 06:15:48;;;;;;;1.90;0.90;;;;;;;6.96;99.06;98842.15;109235;1252;72360;-78
2023/01/09 06:18:15;;;;;;;1.60;1.00;;;;;;;6.95;98.91;98844.30;109252;1252;60030;-78
2023/01/09 06:20:44;;;;;;;2.60;1.10;;;;;;;6.95;99.16;98845.55;109074;1253;58813;-78
2023/01/09 06:23:11;;;;;;;2.20;1.20;;;;;;;6.93;99.16;98848.91;109026;1253;72639;-78
2023/01/09 06:25:40;;;;;;;1.90;1.10;;;;;;;6.92;99.24;98861.92;108957;1253;71339;-78
2023/01/09 06:28:07;;;;;;;4.00;1.50;;;;;;;6.92;99.25;98866.91;109189;1253;72750;-78
2023/01/09 06:30:34;;;;;;;3.00;1.80;;;;;;;6.90;99.05;98862.60;109216;1253;59633;-79
2023/01/09 06:33:01;;;;;;;2.40;1.40;;;;;;;6.93;98.74;98861.56;109218;1252;58218;-78
2023/01/09 06:35:28;;;;;;;2.70;1.30;;;;;;;6.93;98.27;98868.75;109216;1252;72383;-78
2023/01/09 06:37:55;;;;;;;3.10;1.50;;;;;;;6.94;98.38;98879.20;109076;1253;70912;-78
2023/01/09 06:40:22;;;;;;;3.60;1.80;;;;;;;6.90;98.19;98884.41;109076;1252;72391;-78
2023/01/09 06:42:49;;;;;;;3.00;1.50;;;;;;;6.88;97.85;98881.56;109237;1252;60911;-78
2023/01/09 06:45:16;;;;;;;3.80;1.90;;;;;;;6.84;97.77;98885.29;109266;1252;58819;-78
2023/01/09 06:47:43;;;;;;;3.10;1.60;;;;;;;6.80;97.57;98888.75;109061;1252;72623;-78
2023/01/09 06:50:11;;;;;;;2.30;2.00;;;;;;;6.76;97.52;98895.25;109084;1253;69905;-78
2023/01/09 06:52:38;;;;;;;3.10;1.80;;;;;;;6.71;97.63;98895.55;109070;1253;70876;-78
2023/01/09 06:55:06;;;;;;;3.50;2.30;;;;;;;6.66;97.18;98901.08;109063;1253;61302;-78
2023/01/09 06:57:34;;;;;;;3.80;2.10;;;;;;;6.59;97.09;98908.93;108991;1254;58781;-78
2023/01/09 07:00:01;;;;;;;3.60;2.60;;;;;;;6.56;96.49;98905.17;109255;1253;72784;-78
2023/01/09 07:02:28;;;;;;;3.30;2.00;;;;;;;6.52;96.16;98911.34;109065;1253;70265;-78
2023/01/09 07:04:55;;;;;;;4.80;2.40;;;;;;;6.49;95.94;98916.17;109038;1253;71689;-79
2023/01/09 07:07:23;;;;;;;5.30;2.40;;;;;;;6.45;95.85;98920.02;109078;1253;60156;-79
2023/01/09 07:09:50;;;;;;;4.60;2.50;;;;;;;6.40;95.97;98925.84;109071;1253;60075;-79
2023/01/09 07:12:17;;;;;;;5.60;2.60;;;;;;;6.36;95.65;98933.73;109253;1253;72923;-79
2023/01/09 07:14:44;;;;;;;4.10;2.30;;;;;;;6.31;95.37;98936.54;108491;1253;741187;-79
2023/01/09 07:17:12;;;;;;;5.40;2.80;;;;;;;6.25;95.37;98941.11;109248;1252;58016;-79
2023/01/09 07:19:39;;;;;;;4.20;2.50;;;;;;;6.22;95.11;98942.02;109230;1252;59606;-79
2023/01/09 07:22:07;;;;;;;6.40;3.10;;;;;;;6.18;94.90;98946.27;109082;1252;59961;-79
2023/01/09 07:24:34;;;;;;;5.70;2.80;;;;;;;6.14;95.04;98951.91;109254;1253;73888;-79
2023/01/09 07:27:01;;;;;;;6.00;2.90;;;;;;;6.09;94.74;98954.42;109151;1253;70881;-79
2023/01/09 07:29:28;;;;;;;4.80;2.60;;;;;;;6.08;94.52;98958.98;109154;1252;71157;-79
2023/01/09 07:31:55;;;;;;;6.30;3.00;;;;;;;6.03;94.62;98962.17;109242;1252;59656;-79
2023/01/09 07:34:22;;;;;;;5.30;2.70;;;;;;;5.99;94.25;98964.40;109144;1253;58206;-79
2023/01/09 07:36:50;;;;;;;6.20;3.20;;;;;;;5.98;94.13;98970.27;109246;1253;72872;-79
2023/01/09 07:39:17;;;;;;;5.80;2.90;;;;;;;5.94;94.05;98976.48;109134;1253;71013;-79
2023/01/09 07:41:44;;;;;;;5.20;3.10;;;;;;;5.93;94.14;98983.43;109289;1253;72417;-79
2023/01/09 07:44:11;;;;;;;4.50;3.00;;;;;;;5.91;93.99;98985.55;109105;1253;59699;-79
2023/01/09 07:46:38;;;;;;;6.50;3.10;;;;;;;5.90;94.04;98984.66;109080;1253;59730;-79
2023/01/09 07:49:06;;;;;;;4.50;3.30;;;;;;;5.87;93.72;98984.36;109024;1253;75301;-79
2023/01/09 07:51:33;;;;;;;7.30;3.60;;;;;;;5.87;93.42;98984.63;109066;1253;71715;-79
2023/01/09 07:54:00;;;;;;;4.40;3.50;;;;;;;5.87;93.36;98985.39;109059;1253;72440;-79
2023/01/09 07:56:27;;;;;;;8.20;4.00;;;;;;;5.87;93.05;98988.75;109036;1253;59883;-79
2023/01/09 07:58:54;;;;;;;6.20;4.10;;;;;;;5.86;93.08;98989.02;109088;1253;60174;-79
2023/01/09 08:01:21;;;;;;;7.60;3.80;;;;;;;5.86;92.99;98996.55;109075;1253;73558;-79
2023/01/09 08:03:48;;;;;;;5.60;4.30;;;;;;;5.85;92.74;99000.75;109264;1252;69976;-79
2023/01/09 08:06:15;;;;;;;8.30;4.20;;;;;;;5.84;92.48;99012.11;109076;1253;72741;-79
2023/01/09 08:08:43;;;;;;;7.90;4.70;;;;;;;5.84;92.29;99015.95;109072;1253;59735;-79
2023/01/09 08:11:10;;;;;;;8.80;4.70;;;;;;;5.83;92.12;99019.42;109265;1251;61262;-79
2023/01/09 08:13:37;;;;;;;9.20;5.10;;;;;;;5.83;92.00;99023.29;109085;1253;72526;-79
2023/01/09 08:16:04;;;;;;;10.70;5.00;;;;;;;5.83;91.91;99025.18;109084;1253;69695;-79
2023/01/09 08:18:31;;;;;;;9.20;5.00;;;;;;;5.84;91.82;99029.08;108987;1253;72731;-79
2023/01/09 08:20:59;;;;;;;7.70;5.40;;;;;;;5.88;91.56;99027.75;109081;1253;59694;-79
2023/01/09 08:23:26;;;;;;;7.20;4.90;;;;;;;5.91;91.28;99035.27;109126;1253;59289;-79
2023/01/09 08:25:53;;;;;;;8.50;5.20;;;;;;;5.94;91.37;99036.61;109015;1253;72618;-78
2023/01/09 08:28:20;;;;;;;7.30;4.90;;;;;;;5.97;91.08;99035.97;108992;1253;69741;-79
2023/01/09 08:30:47;;;;;;;7.40;5.30;;;;;;;6.00;91.05;99034.05;108982;1252;71163;-79
2023/01/09 08:33:14;;;;;;;8.70;5.00;;;;;;;6.04;91.10;99039.04;109293;1252;59704;-79
2023/01/09 08:35:44;;;;;;;7.80;5.20;;;;;;;6.05;91.01;99042.09;109082;1253;59353;-74
2023/01/09 08:38:12;;;;;;;10.40;5.50;;;;;;;6.09;91.20;99033.45;109204;1253;72631;-73
2023/01/09 08:40:38;;;;;;;10.60;5.70;;;;;;;6.15;90.89;99038.55;109095;1254;69784;-73
2023/01/09 08:48:36;;;;;;;8.00;4.60;;;;;;;6.30;90.23;99045.80;109252;1253;58346;-73
2023/01/09 08:51:03;;;;;;;10.00;5.20;;;;;;;6.37;90.27;99042.58;109074;1253;73111;-74
2023/01/09 08:53:30;;;;;;;10.50;5.20;;;;;;;6.40;90.37;99038.84;109052;1253;69685;-73
2023/01/09 08:55:57;;;;;;;7.80;4.10;;;;;;;6.43;90.24;99047.01;109033;1253;72984;-73
2023/01/09 08:58:24;;;;;;;5.40;3.60;;;;;;;6.48;90.14;99053.05;109242;1253;59856;-73
2023/01/09 09:00:51;;;;;;;6.30;3.30;;;;;;;6.56;89.84;99053.52;109093;1253;60036;-73
2023/01/09 09:03:18;;;;;;;6.30;3.70;;;;;;;6.62;89.64;99055.73;109258;1253;73799;-73
2023/01/09 09:05:45;;;;;;;11.00;5.00;;;;;;;6.66;89.22;99061.27;108970;1260;71072;-73
2023/01/09 09:08:12;;;;;;;8.80;5.00;;;;;;;6.71;89.11;99057.95;109269;1252;72670;-73
2023/01/09 09:10:39;;;;;;;8.20;3.80;;;;;;;6.76;89.03;99060.55;109225;1256;58917;-73
2023/01/09 09:13:06;;;;;;;6.40;2.50;;;;;;;6.79;87.98;99060.24;109080;1253;58819;-73
2023/01/09 09:15:33;;;;;;;5.80;1.90;;;;;;;6.81;86.60;99058.86;109209;1252;72323;-73
2023/01/09 09:18:01;;;;;;;5.30;2.00;;;;;;;6.86;86.08;99060.12;108995;1253;69698;-73
2023/01/09 09:20:30;;;;;;;7.50;2.40;;;;;;;6.95;86.17;99055.95;108960;1253;71446;-73
2023/01/09 09:22:58;;;;;;;6.40;2.40;;;;;;;7.00;85.91;99053.59;109035;1253;59382;-73
2023/01/09 09:25:24;;;;;;;4.80;1.80;;;;;;;7.01;84.92;99052.74;109228;1253;58778;-73
2023/01/09 09:27:51;;;;;;;5.00;1.90;;;;;;;7.06;84.12;99060.85;109193;1253;72608;-73
2023/01/09 09:30:19;;;;;;;4.70;1.70;;;;;;;7.12;84.07;99064.65;109066;1253;69775;-73
2023/01/09 09:32:46;;;;;;;6.60;1.90;;;;;;;7.19;83.78;99068.56;108973;1253;72653;-73
2023/01/09 09:35:13;;;;;;;5.60;1.70;;;;;;;7.28;84.33;99069.86;109269;1253;59644;-73
2023/01/09 09:37:40;;;;;;;6.60;2.20;;;;;;;7.36;84.94;99063.56;109244;1253;60018;-73
2023/01/09 09:40:16;;;;;;;4.70;1.50;;;;;;;7.42;83.92;99069.86;109091;1253;73109;-73
2023/01/09 09:46:11;;;;;;;4.80;1.40;;;;;;;7.57;83.06;99076.55;109022;1253;70901;-73
2023/01/09 09:48:47;;;;;;;5.90;1.50;;;;;;;7.63;82.46;99075.33;109089;1253;60883;-73
2023/01/09 09:51:37;;;;;;;3.50;1.30;;;;;;;7.67;81.89;99075.18;109211;1253;58805;-73
2023/01/09 09:54:10;;;;;;;6.20;1.30;;;;;;;7.66;80.94;99073.67;109265;1253;73557;-73
2023/01/09 09:57:01;;;;;;;6.70;1.70;;;;;;;7.70;81.16;99072.80;109258;1253;69945;-73
2023/01/09 09:59:32;;;;;;;6.70;1.40;;;;;;;7.76;80.67;99078.67;109228;1253;72728;-73
2023/01/09 10:02:14;;;;;;;3.90;1.20;;;;;;;7.82;79.92;99089.91;108965;1253;61046;-74
2023/01/09 10:04:47;;;;;;;5.40;1.40;;;;;;;7.95;80.04;99093.94;109212;1253;60401;-73
2023/01/09 10:07:21;;;;;;;3.90;1.20;;;;;;;8.04;79.34;99092.18;109025;1253;73852;-73
2023/01/09 10:09:53;;;;;;;5.00;1.20;;;;;;;8.16;79.31;99091.85;109073;1253;68959;-73
2023/01/09 10:12:29;;;;;;;5.70;1.10;;;;;;;8.31;78.75;99093.52;109184;1257;71040;-73
2023/01/09 10:14:58;;;;;;;3.70;1.10;;;;;;;8.43;78.36;99093.36;109058;1253;59694;-73
2023/01/09 10:17:37;;;;;;;4.70;1.10;;;;;;;8.51;77.77;99091.45;109050;1253;59173;-73
2023/01/09 10:20:33;;;;;;;7.00;1.50;;;;;;;8.48;76.58;99092.34;109205;1253;74925;-73
2023/01/09 10:23:12;;;;;;;4.40;1.20;;;;;;;8.48;77.37;99089.05;109267;1253;70833;-73
2023/01/09 10:25:44;;;;;;;8.00;1.90;;;;;;;8.47;77.40;99092.91;109270;1253;71681;-73
2023/01/09 10:28:46;;;;;;;11.00;3.50;;;;;;;8.41;78.39;99097.02;109211;1253;60133;-73
2023/01/09 10:31:45;;;;;;;4.60;1.10;;;;;;;8.37;79.04;99084.77;109249;1253;59450;-73
2023/01/09 10:34:17;;;;;;;4.10;1.10;;;;;;;8.33;78.86;99079.84;109259;1253;72471;-73
2023/01/09 10:36:57;;;;;;;6.40;1.30;;;;;;;8.35;79.45;99075.45;109280;1253;69842;-73
2023/01/09 10:39:51;;;;;;;3.10;1.00;;;;;;;8.43;79.41;99075.77;109263;1253;72455;-73
2023/01/09 10:42:29;;;;;;;4.70;1.00;;;;;;;8.53;78.95;99068.60;109237;1253;59665;-73
2023/01/09 10:45:12;;;;;;;4.90;1.10;;;;;;;8.62;78.44;99072.46;109238;1253;58804;-73
2023/01/09 10:47:39;;;;;;;4.50;1.00;;;;;;;8.69;78.76;99068.98;109233;1253;73586;-73
2023/01/09 10:50:25;;;;;;;5.10;1.20;;;;;;;8.77;78.29;99071.25;109224;1253;69653;-74
2023/01/09 10:52:55;;;;;;;4.00;0.90;;;;;;;8.78;77.05;99071.88;109059;1253;72790;-73
2023/01/09 10:55:29;;;;;;;3.30;0.70;;;;;;;8.80;76.63;99065.11;109028;1253;59946;-74
2023/01/09 10:58:01;;;;;;;4.20;1.00;;;;;;;8.89;77.26;99073.38;109283;1253;60183;-73
2023/01/09 11:00:28;;;;;;;2.70;0.90;;;;;;;9.06;77.16;99078.25;109255;1253;72339;-73
2023/01/09 11:02:55;;;;;;;3.10;0.80;;;;;;;9.21;75.09;99077.99;108994;1253;69950;-73
2023/01/09 11:05:25;;;;;;;3.20;0.80;;;;;;;9.36;74.65;99081.48;109046;1253;71690;-73
2023/01/09 11:08:02;;;;;;;3.40;0.80;;;;;;;9.44;72.93;99073.32;109031;1253;61347;-73
2023/01/09 11:10:49;;;;;;;3.40;0.90;;;;;;;9.48;72.95;99077.05;109117;1253;58813;-73
2023/01/09 11:13:25;;;;;;;5.20;0.80;;;;;;;9.45;70.98;99073.02;109113;1251;73046;-72
2023/01/09 11:16:04;;;;;;;2.20;0.70;;;;;;;9.49;71.08;99080.05;108869;1261;70031;-72
2023/01/09 11:18:38;;;;;;;2.50;0.90;;;;;;;9.55;71.03;99077.35;109097;1258;72680;-72
2023/01/09 11:21:28;;;;;;;2.40;0.70;;;;;;;9.54;70.33;99079.34;109259;1252;60782;-74
2023/01/09 11:23:55;;;;;;;4.30;0.90;;;;;;;9.55;70.02;99072.63;109255;1252;60041;-72
2023/01/09 11:26:25;;;;;;;2.60;0.70;;;;;;;9.64;70.87;99064.79;109071;1253;72633;-74
2023/01/09 11:29:08;;;;;;;3.00;0.80;;;;;;;9.67;70.63;99068.55;109239;1253;70998;-73
2023/01/09 11:31:36;;;;;;;3.10;0.80;;;;;;;9.66;70.10;99063.23;109034;1253;71516;-72
2023/01/09 11:34:03;;;;;;;3.40;0.70;;;;;;;9.73;70.97;99060.04;109069;1253;60181;-72
2023/01/09 11:36:30;;;;;;;3.50;1.00;;;;;;;9.76;70.62;99061.27;109255;1253;58785;-72
2023/01/09 11:38:59;;;;;;;3.20;0.80;;;;;;;9.67;70.09;99067.66;109023;1253;73968;-72
2023/01/09 11:41:30;;;;;;;4.90;0.80;;;;;;;9.57;70.82;99063.73;109270;1253;71182;-72
2023/01/09 11:43:59;;;;;;;3.60;0.80;;;;;;;9.51;71.09;99069.70;109038;1253;72518;-72
2023/01/09 11:46:33;;;;;;;1.90;0.60;;;;;;;9.43;71.52;99070.86;109227;1253;61785;-72
2023/01/09 11:49:03;;;;;;;4.40;0.80;;;;;;;9.27;70.70;99071.59;109242;1253;59225;-75
2023/01/09 11:51:32;;;;;;;4.40;0.80;;;;;;;9.14;71.06;99071.15;109231;1253;72645;-74
2023/01/09 11:54:14;;;;;;;3.30;0.90;;;;;;;9.03;71.70;99076.02;109044;1253;70066;-75
2023/01/09 11:56:42;;;;;;;2.30;0.90;;;;;;;8.93;72.37;99084.11;109207;1253;71700;-72
2023/01/09 11:59:14;;;;;;;2.90;0.90;;;;;;;8.87;72.64;99085.73;109029;1258;59943;-74